createdAt,value
2022-08-16T00:02:19.672Z,26.10
2022-08-16T00:04:46.837Z,26.10
2022-08-16T00:07:18.549Z,26.10
2022-08-16T00:09:45.635Z,26.10
2022-08-16T00:12:12.906Z,26.10
2022-08-16T00:14:45.297Z,26.10
2022-08-16T00:17:19.302Z,26.10
2022-08-16T00:19:53.309Z,26.10
2022-08-16T00:22:24.701Z,26.10
2022-08-16T00:24:54.288Z,26.20
2022-08-16T00:27:22.695Z,26.20
2022-08-16T00:30:00.918Z,26.20
2022-08-16T00:32:39.065Z,26.20
2022-08-16T00:35:15.058Z,26.20
2022-08-16T00:37:57.146Z,26.20
2022-08-16T00:40:34.386Z,26.20
2022-08-16T00:43:12.352Z,26.20
2022-08-16T00:46:33.573Z,26.20
2022-08-16T00:48:57.225Z,26.20
2022-08-16T00:51:29.490Z,26.20
2022-08-16T00:53:56.781Z,26.20
2022-08-16T00:56:56.766Z,26.20
2022-08-16T00:59:23.812Z,26.10
2022-08-16T01:01:52.109Z,26.10
2022-08-16T01:04:30.293Z,26.10
2022-08-16T01:07:01.729Z,26.10
2022-08-16T01:09:37.371Z,26.10
2022-08-16T01:12:10.523Z,26.10
2022-08-16T01:14:45.175Z,26.00
2022-08-16T01:17:15.412Z,26.00
2022-08-16T01:19:47.561Z,26.00
2022-08-16T01:22:48.029Z,26.00
2022-08-16T01:25:18.502Z,26.00
2022-08-16T01:27:52.829Z,26.00
2022-08-16T01:30:27.536Z,26.00
2022-08-16T01:33:02.904Z,26.00
2022-08-16T01:36:12.155Z,26.00
2022-08-16T01:38:49.314Z,26.00
2022-08-16T01:41:29.963Z,25.90
2022-08-16T01:44:01.207Z,25.90
2022-08-16T01:46:39.353Z,25.90
2022-08-16T01:50:40.703Z,25.90
2022-08-16T01:52:29.208Z,25.90
2022-08-16T01:55:13.039Z,25.90
2022-08-16T01:57:53.309Z,25.90
2022-08-16T02:00:29.328Z,25.90
2022-08-16T02:02:59.118Z,25.90
2022-08-16T02:05:30.825Z,25.90
2022-08-16T02:08:01.021Z,25.90
2022-08-16T02:10:28.825Z,25.90
2022-08-16T02:13:00.588Z,25.90
2022-08-16T02:15:35.344Z,25.90
2022-08-16T02:18:08.287Z,26.00
2022-08-16T02:20:45.435Z,25.90
2022-08-16T02:23:13.529Z,26.00
2022-08-16T02:25:52.251Z,26.00
2022-08-16T02:28:23.645Z,26.00
2022-08-16T02:30:52.247Z,26.00
2022-08-16T02:33:24.857Z,26.00
2022-08-16T02:36:14.551Z,26.00
2022-08-16T02:38:59.683Z,26.00
2022-08-16T02:41:27.196Z,26.00
2022-08-16T02:43:54.137Z,26.00
2022-08-16T02:46:30.097Z,26.00
2022-08-16T02:49:02.141Z,26.00
2022-08-16T02:51:31.398Z,26.00
2022-08-16T02:54:00.132Z,26.00
2022-08-16T02:56:32.346Z,26.00
2022-08-16T02:59:00.127Z,25.90
2022-08-16T03:01:36.625Z,26.00
2022-08-16T03:04:41.160Z,25.90
2022-08-16T03:07:14.530Z,25.90
2022-08-16T03:09:45.454Z,25.90
2022-08-16T03:12:16.632Z,25.90
2022-08-16T03:14:46.707Z,25.90
2022-08-16T03:17:16.424Z,25.90
2022-08-16T03:19:59.634Z,25.90
2022-08-16T03:22:32.374Z,25.90
2022-08-16T03:25:10.078Z,25.90
2022-08-16T03:27:41.010Z,25.90
2022-08-16T03:30:18.656Z,25.90
2022-08-16T03:32:52.115Z,25.90
2022-08-16T03:35:32.767Z,25.90
2022-08-16T03:38:32.973Z,25.90
2022-08-16T03:40:57.845Z,25.80
2022-08-16T03:43:51.339Z,25.80
2022-08-16T03:46:44.313Z,25.80
2022-08-16T03:49:05.182Z,25.80
2022-08-16T03:51:34.705Z,25.80
2022-08-16T03:54:12.604Z,25.80
2022-08-16T03:56:57.372Z,25.80
2022-08-16T03:59:29.791Z,25.80
2022-08-16T04:02:04.227Z,25.80
2022-08-16T04:04:39.722Z,25.70
2022-08-16T04:07:07.557Z,25.80
2022-08-16T04:09:38.778Z,25.80
2022-08-16T04:12:54.536Z,25.70
2022-08-16T04:14:59.323Z,25.70
2022-08-16T04:17:27.201Z,25.70
2022-08-16T04:19:58.140Z,25.70
2022-08-16T04:22:27.902Z,25.70
2022-08-16T04:24:59.707Z,25.70
2022-08-16T04:27:33.275Z,25.70
2022-08-16T04:30:03.977Z,25.70
2022-08-16T04:32:37.203Z,25.70
2022-08-16T04:35:16.333Z,25.60
2022-08-16T04:37:46.185Z,25.70
2022-08-16T04:40:30.177Z,25.70
2022-08-16T04:43:00.530Z,25.70
2022-08-16T04:45:35.724Z,25.70
2022-08-16T04:48:08.683Z,25.60
2022-08-16T04:50:45.620Z,25.60
2022-08-16T04:53:19.388Z,25.60
2022-08-16T04:55:53.303Z,25.60
2022-08-16T04:58:44.514Z,25.60
2022-08-16T05:01:09.477Z,25.60
2022-08-16T05:03:41.493Z,25.60
2022-08-16T05:06:10.104Z,25.70
2022-08-16T05:08:38.179Z,25.60
2022-08-16T05:11:22.453Z,25.60
2022-08-16T05:13:50.184Z,25.70
2022-08-16T05:16:25.419Z,25.60
2022-08-16T05:19:02.272Z,25.60
2022-08-16T05:21:38.318Z,25.60
2022-08-16T05:24:07.604Z,25.70
2022-08-16T05:26:40.781Z,25.70
2022-08-16T05:29:15.376Z,25.70
2022-08-16T05:31:54.897Z,25.70
2022-08-16T05:34:22.663Z,25.70
2022-08-16T05:36:57.281Z,25.70
2022-08-16T05:39:33.233Z,25.70
2022-08-16T05:42:00.891Z,25.70
2022-08-16T05:44:28.704Z,25.70
2022-08-16T05:47:00.342Z,25.70
2022-08-16T05:49:36.836Z,25.70
2022-08-16T05:52:10.872Z,25.70
2022-08-16T05:54:46.811Z,25.80
2022-08-16T05:57:20.786Z,25.70
2022-08-16T06:00:00.002Z,25.80
2022-08-16T06:02:41.210Z,25.80
2022-08-16T06:05:28.425Z,25.80
2022-08-16T06:07:58.406Z,25.90
2022-08-16T06:10:33.392Z,25.90
2022-08-16T06:13:03.661Z,25.90
2022-08-16T06:15:31.346Z,25.90
2022-08-16T06:18:00.502Z,26.00
2022-08-16T06:20:35.694Z,26.00
2022-08-16T06:23:11.519Z,26.00
2022-08-16T06:25:55.198Z,26.00
2022-08-16T06:28:35.992Z,26.00
2022-08-16T06:31:06.666Z,26.00
2022-08-16T06:33:41.592Z,26.00
2022-08-16T06:36:11.799Z,26.10
2022-08-16T06:38:55.740Z,26.10
2022-08-16T06:41:39.759Z,26.10
2022-08-16T06:44:20.838Z,26.10
2022-08-16T06:46:50.683Z,26.20
2022-08-16T06:49:23.444Z,26.20
2022-08-16T06:51:50.611Z,26.20
2022-08-16T06:54:24.497Z,26.20
2022-08-16T06:56:54.324Z,26.30
2022-08-16T06:59:25.947Z,26.30
2022-08-16T07:01:58.375Z,26.30
2022-08-16T07:04:33.138Z,26.30
2022-08-16T07:07:05.944Z,26.40
2022-08-16T07:09:33.673Z,26.40
2022-08-16T07:12:03.640Z,26.40
2022-08-16T07:14:35.388Z,26.40
2022-08-16T07:17:08.231Z,26.40
2022-08-16T07:20:29.801Z,26.40
2022-08-16T07:22:38.890Z,26.40
2022-08-16T07:25:14.552Z,26.40
2022-08-16T07:27:44.487Z,26.40
2022-08-16T07:30:39.841Z,26.40
2022-08-16T07:33:07.101Z,26.40
2022-08-16T07:35:36.034Z,26.40
2022-08-16T07:38:04.486Z,26.40
2022-08-16T07:40:59.688Z,26.50
2022-08-16T07:43:28.860Z,26.50
2022-08-16T07:45:59.521Z,26.50
2022-08-16T07:48:29.529Z,26.50
2022-08-16T07:50:59.131Z,26.60
2022-08-16T07:53:34.474Z,26.60
2022-08-16T07:56:12.209Z,26.60
2022-08-16T07:58:42.237Z,26.70
2022-08-16T08:01:14.999Z,26.70
2022-08-16T08:03:57.276Z,26.70
2022-08-16T08:06:32.905Z,26.70
2022-08-16T08:09:07.396Z,26.80
2022-08-16T08:11:34.443Z,26.80
2022-08-16T08:14:06.676Z,26.80
2022-08-16T08:16:45.217Z,26.90
2022-08-16T08:19:19.587Z,26.80
2022-08-16T08:22:01.254Z,26.90
2022-08-16T08:25:03.555Z,26.90
2022-08-16T08:27:33.190Z,26.90
2022-08-16T08:30:52.391Z,27.00
2022-08-16T08:33:00.246Z,26.90
2022-08-16T08:35:30.689Z,27.00
2022-08-16T08:37:59.426Z,27.00
2022-08-16T08:40:29.601Z,27.00
2022-08-16T08:43:00.926Z,27.00
2022-08-16T08:45:53.001Z,27.00
2022-08-16T08:48:33.569Z,27.00
2022-08-16T08:51:09.728Z,27.00
2022-08-16T08:54:07.020Z,27.00
2022-08-16T08:56:45.450Z,26.90
2022-08-16T08:59:34.775Z,27.00
2022-08-16T09:02:10.005Z,27.00
2022-08-16T09:04:47.369Z,27.00
2022-08-16T09:07:17.681Z,27.10
2022-08-16T09:09:47.665Z,27.10
2022-08-16T09:12:35.642Z,27.10
2022-08-16T09:15:11.566Z,27.20
2022-08-16T09:17:51.502Z,27.30
2022-08-16T09:20:20.287Z,27.30
2022-08-16T09:22:51.476Z,27.40
2022-08-16T09:25:26.179Z,27.40
2022-08-16T09:28:09.067Z,27.40
2022-08-16T09:30:43.260Z,27.50
2022-08-16T09:33:12.946Z,27.50
2022-08-16T09:35:42.670Z,27.50
2022-08-16T09:38:12.335Z,27.50
2022-08-16T09:40:49.172Z,27.50
2022-08-16T09:43:53.213Z,27.60
2022-08-16T09:46:33.520Z,27.60
2022-08-16T09:48:56.383Z,27.70
2022-08-16T09:51:26.301Z,27.80
2022-08-16T09:53:57.904Z,27.80
2022-08-16T09:56:27.014Z,27.90
2022-08-16T09:59:04.810Z,27.90
2022-08-16T10:01:34.574Z,27.90
2022-08-16T10:04:04.585Z,28.00
2022-08-16T10:06:34.133Z,28.00
2022-08-16T10:09:11.191Z,28.00
2022-08-16T10:12:11.139Z,28.00
2022-08-16T10:14:46.233Z,27.90
2022-08-16T10:17:13.781Z,27.90
2022-08-16T10:19:43.220Z,27.90
2022-08-16T10:22:12.679Z,27.80
2022-08-16T10:24:56.050Z,27.90
2022-08-16T10:27:46.045Z,27.90
2022-08-16T10:30:26.077Z,27.90
2022-08-16T10:32:55.573Z,27.90
2022-08-16T10:35:22.997Z,28.00
2022-08-16T10:37:52.266Z,27.90
2022-08-16T10:40:29.871Z,28.00
2022-08-16T10:43:02.093Z,28.00
2022-08-16T10:45:37.179Z,28.00
2022-08-16T10:48:27.180Z,28.00
2022-08-16T10:50:58.203Z,28.00
2022-08-16T10:53:32.929Z,28.10
2022-08-16T10:56:02.457Z,28.10
2022-08-16T10:58:34.332Z,28.10
2022-08-16T11:03:57.285Z,28.20
2022-08-16T11:06:26.930Z,28.20
2022-08-16T11:14:30.517Z,28.40
2022-08-16T11:17:09.229Z,28.40
2022-08-16T11:20:00.573Z,28.40
2022-08-16T11:22:46.975Z,28.50
2022-08-16T11:25:13.190Z,28.50
2022-08-16T11:27:44.301Z,28.60
2022-08-16T11:30:19.945Z,28.60
2022-08-16T11:32:47.496Z,28.70
2022-08-16T11:35:19.040Z,28.70
2022-08-16T11:38:46.601Z,28.70
2022-08-16T11:41:03.794Z,28.70
2022-08-16T11:43:34.784Z,28.70
2022-08-16T11:46:42.894Z,28.70
2022-08-16T11:48:51.928Z,28.70
2022-08-16T11:51:20.747Z,28.80
2022-08-16T11:53:47.852Z,28.80
2022-08-16T11:56:15.076Z,28.90
2022-08-16T11:58:42.105Z,28.90
2022-08-16T12:01:10.587Z,29.00
2022-08-16T12:03:38.242Z,29.00
2022-08-16T12:06:24.953Z,29.00
2022-08-16T12:09:01.974Z,29.00
2022-08-16T12:11:31.613Z,29.10
2022-08-16T12:14:04.357Z,29.10
2022-08-16T12:16:34.451Z,29.10
2022-08-16T12:19:10.563Z,29.10
2022-08-16T12:21:58.510Z,29.10
2022-08-16T12:24:27.626Z,29.10
2022-08-16T12:26:55.067Z,29.10
2022-08-16T12:29:22.276Z,29.10
2022-08-16T12:32:00.669Z,29.10
2022-08-16T12:34:38.125Z,29.20
2022-08-16T12:37:16.736Z,29.20
2022-08-16T12:39:50.847Z,29.20
2022-08-16T12:42:20.415Z,29.30
2022-08-16T12:44:50.973Z,29.30
2022-08-16T12:47:37.707Z,29.30
2022-08-16T12:50:07.603Z,29.30
2022-08-16T12:52:40.052Z,29.40
2022-08-16T12:55:14.352Z,29.40
2022-08-16T12:57:41.926Z,29.40
2022-08-16T13:00:26.758Z,29.40
2022-08-16T13:02:54.521Z,29.50
2022-08-16T13:05:22.224Z,29.60
2022-08-16T13:07:51.308Z,29.60
2022-08-16T13:10:37.189Z,29.60
2022-08-16T13:13:09.196Z,29.60
2022-08-16T13:15:51.649Z,29.60
2022-08-16T13:18:34.234Z,29.70
2022-08-16T13:21:08.005Z,29.70
2022-08-16T13:23:43.179Z,29.80
2022-08-16T13:26:12.754Z,29.80
2022-08-16T13:28:47.827Z,29.80
2022-08-16T13:31:16.750Z,29.90
2022-08-16T13:33:44.573Z,30.00
2022-08-16T13:36:21.259Z,30.00
2022-08-16T13:39:00.691Z,30.00
2022-08-16T13:41:30.215Z,30.10
2022-08-16T13:44:01.101Z,30.10
2022-08-16T13:46:32.367Z,30.10
2022-08-16T13:48:59.917Z,30.20
2022-08-16T13:51:30.618Z,30.20
2022-08-16T13:54:03.912Z,30.30
2022-08-16T13:56:36.968Z,30.30
2022-08-16T13:59:19.843Z,30.40
2022-08-16T14:01:55.284Z,30.40
2022-08-16T14:04:31.855Z,30.50
2022-08-16T14:07:02.325Z,30.50
2022-08-16T14:09:30.536Z,30.60
2022-08-16T14:12:00.798Z,30.70
2022-08-16T14:14:30.029Z,30.80
2022-08-16T14:17:03.153Z,30.90
2022-08-16T14:19:31.027Z,30.90
2022-08-16T14:22:14.379Z,31.00
2022-08-16T14:24:47.582Z,31.00
2022-08-16T14:27:21.863Z,31.20
2022-08-16T14:29:50.742Z,31.30
2022-08-16T14:32:33.984Z,31.30
2022-08-16T14:35:15.522Z,31.30
2022-08-16T14:37:43.360Z,31.30
2022-08-16T14:40:13.692Z,31.30
2022-08-16T14:42:44.028Z,31.30
2022-08-16T14:45:17.113Z,31.20
2022-08-16T14:47:44.313Z,31.30
2022-08-16T14:50:15.282Z,31.30
2022-08-16T14:52:55.927Z,31.50
2022-08-16T14:55:26.406Z,31.60
2022-08-16T14:57:54.640Z,31.80
2022-08-16T15:00:32.999Z,32.00
2022-08-16T15:03:04.612Z,32.10
2022-08-16T15:05:32.000Z,32.30
2022-08-16T15:08:00.021Z,32.50
2022-08-16T15:10:29.462Z,32.60
2022-08-16T15:13:00.899Z,32.80
2022-08-16T15:15:30.644Z,33.10
2022-08-16T15:18:02.462Z,33.30
2022-08-16T15:20:32.606Z,33.70
2022-08-16T15:23:02.871Z,34.00
2022-08-16T15:25:41.396Z,34.30
2022-08-16T15:28:30.792Z,34.40
2022-08-16T15:31:04.011Z,34.30
2022-08-16T15:33:34.935Z,34.00
2022-08-16T15:36:03.222Z,33.70
2022-08-16T15:39:02.295Z,33.70
2022-08-16T15:41:43.677Z,34.00
2022-08-16T15:44:21.164Z,34.20
2022-08-16T15:46:55.126Z,34.30
2022-08-16T15:49:34.753Z,34.50
2022-08-16T15:52:06.907Z,34.80
2022-08-16T15:54:53.679Z,35.00
2022-08-16T15:57:24.672Z,35.40
2022-08-16T15:59:55.894Z,35.80
2022-08-16T16:02:31.259Z,36.10
2022-08-16T16:05:01.809Z,36.20
2022-08-16T16:07:30.512Z,36.10
2022-08-16T16:09:59.468Z,36.00
2022-08-16T16:12:50.799Z,35.90
2022-08-16T16:15:17.580Z,35.70
2022-08-16T16:17:50.649Z,35.60
2022-08-16T16:20:21.810Z,35.40
2022-08-16T16:22:49.926Z,35.30
2022-08-16T16:25:18.443Z,35.30
2022-08-16T16:27:46.686Z,35.30
2022-08-16T16:30:33.283Z,35.50
2022-08-16T16:33:05.400Z,35.70
2022-08-16T16:35:34.893Z,36.20
2022-08-16T16:38:08.113Z,36.50
2022-08-16T16:40:38.913Z,36.80
2022-08-16T16:43:16.157Z,37.10
2022-08-16T16:45:43.839Z,37.20
2022-08-16T16:48:12.088Z,37.30
2022-08-16T16:50:44.533Z,37.40
2022-08-16T16:53:17.517Z,37.60
2022-08-16T16:55:52.036Z,37.80
2022-08-16T16:58:40.473Z,37.90
2022-08-16T17:01:10.881Z,38.00
2022-08-16T17:03:38.883Z,38.00
2022-08-16T17:06:09.220Z,37.90
2022-08-16T17:08:41.416Z,37.80
2022-08-16T17:11:13.941Z,37.80
2022-08-16T17:13:43.037Z,38.00
2022-08-16T17:16:18.841Z,38.20
2022-08-16T17:19:16.140Z,38.30
2022-08-16T17:21:36.920Z,38.20
2022-08-16T17:24:18.302Z,38.00
2022-08-16T17:26:48.976Z,37.70
2022-08-16T17:29:16.266Z,37.30
2022-08-16T17:34:31.274Z,36.80
2022-08-16T17:37:05.214Z,36.50
2022-08-16T17:39:28.785Z,37.10
2022-08-16T17:39:35.575Z,36.20
2022-08-16T17:42:25.215Z,36.00
2022-08-16T17:44:52.752Z,35.80
2022-08-16T17:47:22.570Z,35.60
2022-08-16T17:49:49.843Z,35.40
2022-08-16T17:52:17.349Z,35.20
2022-08-16T17:54:44.775Z,35.10
2022-08-16T17:57:12.950Z,35.00
2022-08-16T17:59:41.239Z,34.80
2022-08-16T18:02:42.877Z,34.80
2022-08-16T18:04:56.319Z,34.50
2022-08-16T18:07:23.359Z,34.40
2022-08-16T18:09:52.304Z,34.40
2022-08-16T18:12:54.842Z,34.30
2022-08-16T18:15:15.322Z,34.20
2022-08-16T18:17:43.844Z,34.10
2022-08-16T18:20:33.381Z,33.90
2022-08-16T18:23:19.177Z,33.80
2022-08-16T18:25:51.778Z,33.70
2022-08-16T18:28:19.184Z,33.60
2022-08-16T18:30:51.611Z,33.50
2022-08-16T18:33:22.128Z,33.40
2022-08-16T18:35:52.062Z,33.30
2022-08-16T18:38:21.836Z,33.20
2022-08-16T18:40:52.792Z,33.20
2022-08-16T18:43:22.125Z,33.10
2022-08-16T18:46:09.090Z,33.00
2022-08-16T18:48:36.110Z,32.90
2022-08-16T18:51:08.401Z,32.90
2022-08-16T18:53:38.608Z,32.80
2022-08-16T18:56:05.814Z,32.80
2022-08-16T18:58:33.933Z,32.70
2022-08-16T19:01:01.046Z,32.70
2022-08-16T19:03:31.276Z,32.60
2022-08-16T19:06:04.251Z,32.60
2022-08-16T19:08:32.025Z,32.50
2022-08-16T19:11:01.773Z,32.50
2022-08-16T19:13:33.046Z,32.40
2022-08-16T19:16:01.714Z,32.30
2022-08-16T19:18:30.553Z,32.30
2022-08-16T19:21:05.130Z,32.30
2022-08-16T19:23:35.933Z,32.20
2022-08-16T19:26:11.081Z,32.10
2022-08-16T19:28:59.767Z,32.10
2022-08-16T19:31:33.809Z,32.00
2022-08-16T19:34:04.465Z,32.00
2022-08-16T19:36:37.389Z,32.00
2022-08-16T19:39:14.556Z,31.90
2022-08-16T19:41:53.502Z,31.90
2022-08-16T19:44:22.421Z,31.80
2022-08-16T19:46:49.869Z,31.80
2022-08-16T19:49:17.306Z,31.70
2022-08-16T19:51:48.956Z,31.70
2022-08-16T19:54:16.613Z,31.70
2022-08-16T19:56:43.759Z,31.60
2022-08-16T19:59:20.524Z,31.60
2022-08-16T20:01:53.393Z,31.50
2022-08-16T20:04:21.991Z,31.50
2022-08-16T20:06:50.023Z,31.50
2022-08-16T20:09:17.169Z,31.50
2022-08-16T20:11:45.742Z,31.40
2022-08-16T20:14:24.802Z,31.40
2022-08-16T20:16:55.616Z,31.40
2022-08-16T20:19:23.106Z,31.40
2022-08-16T20:21:52.786Z,31.40
2022-08-16T20:24:36.336Z,31.30
2022-08-16T20:27:07.267Z,31.30
2022-08-16T20:29:35.914Z,31.30
2022-08-16T20:32:05.018Z,31.30
2022-08-16T20:34:32.466Z,31.20
2022-08-16T20:36:59.952Z,31.20
2022-08-16T20:39:27.511Z,31.20
2022-08-16T20:41:54.535Z,31.20
2022-08-16T20:44:22.890Z,31.10
2022-08-16T20:46:52.445Z,31.20
2022-08-16T20:49:19.424Z,31.10
2022-08-16T20:51:52.604Z,31.10
2022-08-16T20:54:20.772Z,31.00
2022-08-16T20:56:48.327Z,31.00
2022-08-16T20:59:15.838Z,31.00
2022-08-16T21:01:49.567Z,31.00
2022-08-16T21:04:21.826Z,31.00
2022-08-16T21:06:53.648Z,30.90
2022-08-16T21:09:27.093Z,30.90
2022-08-16T21:11:55.733Z,30.90
2022-08-16T21:14:23.621Z,30.90
2022-08-16T21:16:51.056Z,30.90
2022-08-16T21:19:20.035Z,30.80
2022-08-16T21:21:47.082Z,30.90
2022-08-16T21:24:14.412Z,30.80
2022-08-16T21:26:47.424Z,30.80
2022-08-16T21:29:22.941Z,30.80
2022-08-16T21:31:52.196Z,30.80
2022-08-16T21:34:19.209Z,30.80
2022-08-16T21:36:46.268Z,30.70
2022-08-16T21:39:13.412Z,30.70
2022-08-16T21:41:40.545Z,30.70
2022-08-16T21:44:07.886Z,30.70
2022-08-16T21:46:34.901Z,30.70
2022-08-16T21:49:01.940Z,30.60
2022-08-16T21:51:28.974Z,30.50
2022-08-16T21:53:56.794Z,30.40
2022-08-16T21:56:23.941Z,30.30
2022-08-16T21:58:53.444Z,30.20
2022-08-16T22:01:24.830Z,30.10
2022-08-16T22:04:03.530Z,30.00
2022-08-16T22:06:41.203Z,29.90
2022-08-16T22:09:09.954Z,29.70
2022-08-16T22:11:37.442Z,29.60
2022-08-16T22:14:05.419Z,29.50
2022-08-16T22:16:36.263Z,29.30
2022-08-16T22:19:04.900Z,29.30
2022-08-16T22:21:32.720Z,29.20
2022-08-16T22:24:00.445Z,29.10
2022-08-16T22:26:32.593Z,29.00
2022-08-16T22:29:01.876Z,29.00
2022-08-16T22:31:29.996Z,28.90
2022-08-16T22:33:57.944Z,28.90
2022-08-16T22:36:28.378Z,28.80
2022-08-16T22:39:01.091Z,28.80
2022-08-16T22:41:34.511Z,28.80
2022-08-16T22:44:03.699Z,28.70
2022-08-16T22:46:36.490Z,28.70
2022-08-16T22:49:05.639Z,28.70
2022-08-16T22:51:32.693Z,28.70
2022-08-16T22:53:59.723Z,28.60
2022-08-16T22:56:27.358Z,28.60
2022-08-16T22:58:54.411Z,28.60
2022-08-16T23:01:24.545Z,28.60
2022-08-16T23:03:55.104Z,28.50
2022-08-16T23:06:23.920Z,28.50
2022-08-16T23:08:51.518Z,28.50
2022-08-16T23:11:22.592Z,28.50
2022-08-16T23:13:55.221Z,28.50
2022-08-16T23:16:33.674Z,28.50
2022-08-16T23:19:04.509Z,28.40
2022-08-16T23:21:32.459Z,28.40
2022-08-16T23:23:59.988Z,28.40
2022-08-16T23:26:44.873Z,28.40
2022-08-16T23:29:22.297Z,28.30
2022-08-16T23:31:58.071Z,28.30
2022-08-16T23:34:26.916Z,28.40
2022-08-16T23:36:55.199Z,28.30
2022-08-16T23:39:22.577Z,28.30
2022-08-16T23:41:49.608Z,28.30
2022-08-16T23:44:44.095Z,28.30
2022-08-16T23:47:06.001Z,28.30
2022-08-16T23:49:55.983Z,28.30
2022-08-16T23:52:39.432Z,28.40
2022-08-16T23:55:07.677Z,28.40
2022-08-16T23:57:34.715Z,28.40
